createdAt,value
2019-04-16T00:00:17.711Z,14.70
2019-04-16T00:02:48.549Z,14.60
2019-04-16T00:05:27.525Z,14.30
2019-04-16T00:08:19.324Z,14.20
2019-04-16T00:10:56.018Z,14.30
2019-04-16T00:13:26.506Z,14.20
2019-04-16T00:15:55.445Z,14.20
2019-04-16T00:23:40.361Z,14.40
2019-04-16T00:28:37.848Z,14.00
2019-04-16T00:31:06.781Z,14.10
2019-04-16T00:33:35.542Z,14.30
2019-04-16T00:36:04.478Z,14.10
2019-04-16T00:38:40.722Z,14.10
2019-04-16T00:43:32.399Z,14.50
2019-04-16T00:48:29.708Z,14.70
2019-04-16T00:53:27.076Z,14.30
2019-04-16T00:55:55.874Z,14.40
2019-04-16T00:58:24.810Z,14.30
2019-04-16T01:00:53.613Z,14.40
2019-04-16T01:05:50.911Z,14.40
2019-04-16T01:13:16.608Z,15.40
2019-04-16T01:23:17.564Z,16.00
2019-04-16T01:25:43.308Z,16.00
2019-04-16T01:30:46.580Z,16.60
2019-04-16T01:33:19.934Z,16.60
2019-04-16T01:38:44.410Z,16.40
2019-04-16T01:41:15.063Z,16.40
2019-04-16T01:43:43.890Z,16.50
2019-04-16T01:46:12.762Z,16.50
2019-04-16T01:48:41.590Z,16.70
2019-04-16T01:51:14.979Z,16.60
2019-04-16T01:53:40.940Z,17.50
2019-04-16T01:56:09.792Z,17.20
2019-04-16T01:58:39.414Z,17.20
2019-04-16T02:01:11.217Z,17.20
2019-04-16T02:03:38.713Z,17.40
2019-04-16T02:06:07.509Z,17.10
2019-04-16T02:08:36.272Z,17.20
2019-04-16T02:16:03.967Z,17.60
2019-04-16T02:18:32.775Z,17.40
2019-04-16T02:21:01.834Z,17.80
2019-04-16T02:23:30.674Z,17.30
2019-04-16T02:28:28.958Z,17.40
2019-04-16T02:30:58.331Z,17.80
2019-04-16T02:33:27.168Z,18.00
2019-04-16T02:35:56.013Z,17.80
2019-04-16T02:38:24.862Z,18.00
2019-04-16T02:43:22.388Z,18.40
2019-04-16T02:45:56.681Z,18.00
2019-04-16T02:51:05.518Z,18.40
2019-04-16T02:53:48.753Z,18.80
2019-04-16T02:56:30.743Z,18.60
2019-04-16T02:59:09.623Z,18.80
2019-04-16T03:01:36.393Z,18.70
2019-04-16T03:04:06.803Z,18.80
2019-04-16T03:06:35.668Z,19.20
2019-04-16T03:09:09.140Z,18.90
2019-04-16T03:11:36.735Z,19.00
2019-04-16T03:14:05.530Z,19.10
2019-04-16T03:24:17.102Z,19.40
2019-04-16T03:26:47.594Z,19.50
2019-04-16T03:36:41.750Z,19.90
2019-04-16T03:39:13.583Z,19.80
2019-04-16T03:44:09.835Z,20.10
2019-04-16T03:49:08.786Z,20.00
2019-04-16T03:54:06.280Z,20.40
2019-04-16T03:56:35.051Z,20.20
2019-04-16T03:59:04.055Z,20.40
2019-04-16T04:01:32.880Z,20.40
2019-04-16T04:04:01.821Z,20.50
2019-04-16T04:06:30.636Z,20.80
2019-04-16T04:08:59.432Z,20.80
2019-04-16T04:13:56.725Z,21.00
2019-04-16T04:16:25.560Z,20.90
2019-04-16T04:18:54.420Z,20.90
2019-04-16T04:21:23.242Z,20.80
2019-04-16T04:23:52.053Z,21.60
2019-04-16T04:26:20.816Z,21.30
2019-04-16T04:28:51.586Z,21.40
2019-04-16T04:31:20.149Z,21.50
2019-04-16T04:33:48.978Z,21.90
2019-04-16T04:38:47.931Z,21.50
2019-04-16T04:41:16.742Z,21.40
2019-04-16T04:43:45.501Z,21.60
2019-04-16T04:46:15.202Z,21.80
2019-04-16T04:51:12.987Z,21.50
2019-04-16T04:53:41.813Z,22.20
2019-04-16T04:56:10.608Z,21.70
2019-04-16T04:58:39.444Z,21.70
2019-04-16T05:01:09.550Z,21.60
2019-04-16T05:03:40.658Z,21.40
2019-04-16T05:06:11.145Z,21.30
2019-04-16T05:08:39.896Z,21.30
2019-04-16T05:11:08.685Z,21.10
2019-04-16T05:13:37.459Z,21.10
2019-04-16T05:16:07.094Z,21.30
2019-04-16T05:18:38.282Z,21.50
2019-04-16T05:23:37.613Z,21.30
2019-04-16T05:26:05.669Z,21.30
2019-04-16T05:28:34.512Z,21.50
2019-04-16T05:31:03.364Z,21.30
2019-04-16T05:36:02.301Z,21.30
2019-04-16T05:38:31.058Z,20.80
2019-04-16T05:41:12.414Z,20.70
2019-04-16T05:48:28.224Z,20.70
2019-04-16T05:50:59.770Z,20.30
2019-04-16T05:53:27.797Z,20.00
2019-04-16T05:55:58.226Z,20.10
2019-04-16T06:01:01.824Z,19.80
2019-04-16T06:03:30.593Z,19.80
2019-04-16T06:05:59.944Z,19.70
2019-04-16T06:08:28.829Z,20.20
2019-04-16T06:10:57.812Z,19.50
2019-04-16T06:13:28.714Z,19.20
2019-04-16T06:16:01.876Z,19.20
2019-04-16T06:18:37.993Z,18.40
2019-04-16T06:23:56.390Z,18.30
2019-04-16T06:26:32.985Z,18.20
2019-04-16T06:29:18.285Z,18.40
2019-04-16T06:31:48.848Z,18.00
2019-04-16T06:34:28.055Z,17.70
2019-04-16T06:42:25.947Z,17.60
2019-04-16T06:44:56.644Z,17.90
2019-04-16T06:47:42.823Z,17.60
2019-04-16T06:50:32.160Z,17.20
2019-04-16T06:53:07.064Z,17.10
2019-04-16T06:58:18.821Z,17.00
2019-04-16T07:01:06.820Z,16.60
2019-04-16T07:03:39.264Z,16.40
2019-04-16T07:06:18.565Z,16.20
2019-04-16T07:11:27.577Z,16.10
2019-04-16T07:13:56.335Z,16.00
2019-04-16T07:16:27.932Z,16.20
2019-04-16T07:18:55.691Z,16.00
2019-04-16T07:21:24.517Z,15.70
2019-04-16T07:23:56.824Z,15.80
2019-04-16T07:26:23.859Z,15.80
2019-04-16T07:29:03.052Z,15.60
2019-04-16T07:31:34.522Z,15.50
2019-04-16T07:34:05.449Z,15.50
2019-04-16T07:39:14.845Z,14.80
2019-04-16T07:41:50.531Z,14.80
2019-04-16T07:44:21.024Z,14.80
2019-04-16T07:47:06.278Z,14.90
2019-04-16T07:49:42.516Z,14.70
2019-04-16T07:52:28.987Z,14.70
2019-04-16T07:55:16.275Z,14.60
2019-04-16T07:57:45.165Z,14.30
2019-04-16T08:02:43.618Z,14.10
2019-04-16T08:05:12.552Z,14.20
2019-04-16T08:07:41.145Z,14.00
2019-04-16T08:10:10.145Z,14.00
2019-04-16T08:12:42.280Z,13.80
2019-04-16T08:15:14.173Z,13.80
2019-04-16T08:17:41.800Z,13.80
2019-04-16T08:20:10.629Z,13.50
2019-04-16T08:22:40.110Z,13.30
2019-04-16T08:25:09.018Z,13.50
2019-04-16T08:27:37.582Z,13.70
2019-04-16T08:30:09.035Z,13.60
2019-04-16T08:32:37.546Z,13.50
2019-04-16T08:35:07.361Z,13.10
2019-04-16T08:37:48.403Z,13.10
2019-04-16T08:40:08.794Z,13.70
2019-04-16T08:42:44.310Z,13.50
2019-04-16T08:45:08.689Z,13.00
2019-04-16T08:47:37.474Z,13.20
2019-04-16T08:50:06.168Z,13.00
2019-04-16T08:52:34.832Z,12.80
2019-04-16T08:55:03.497Z,12.30
2019-04-16T08:57:32.798Z,12.50
2019-04-16T09:00:01.444Z,12.50
2019-04-16T09:02:30.021Z,12.60
2019-04-16T09:04:58.809Z,12.20
2019-04-16T09:07:39.752Z,12.70
2019-04-16T09:10:20.294Z,12.40
2019-04-16T09:13:02.049Z,12.60
2019-04-16T09:15:27.940Z,12.30
2019-04-16T09:17:58.310Z,12.50
2019-04-16T09:20:28.492Z,12.30
2019-04-16T09:22:59.147Z,12.70
2019-04-16T09:25:38.154Z,12.00
2019-04-16T09:28:23.822Z,11.90
2019-04-16T09:30:46.732Z,11.70
2019-04-16T09:33:26.698Z,11.40
2019-04-16T09:36:05.748Z,11.30
2019-04-16T09:38:45.134Z,11.50
2019-04-16T09:41:22.505Z,11.60
2019-04-16T09:43:53.642Z,10.90
2019-04-16T09:46:48.091Z,11.10
2019-04-16T09:48:53.230Z,11.20
2019-04-16T09:51:25.023Z,11.20
2019-04-16T09:53:52.190Z,10.70
2019-04-16T09:56:28.960Z,10.70
2019-04-16T09:59:17.158Z,10.80
2019-04-16T10:01:47.428Z,10.60
2019-04-16T10:04:17.688Z,10.50
2019-04-16T10:06:46.267Z,10.00
2019-04-16T10:09:20.042Z,10.20
2019-04-16T10:11:45.240Z,10.20
2019-04-16T10:16:42.216Z,10.10
2019-04-16T10:19:10.800Z,9.90
2019-04-16T10:21:39.389Z,9.60
2019-04-16T10:24:15.502Z,9.70
2019-04-16T10:29:18.341Z,9.50
2019-04-16T10:31:47.149Z,9.30
2019-04-16T10:34:15.774Z,8.90
2019-04-16T10:36:44.507Z,9.20
2019-04-16T10:39:32.983Z,9.10
2019-04-16T10:42:12.207Z,8.80
2019-04-16T10:44:57.563Z,8.90
2019-04-16T10:47:40.051Z,9.10
2019-04-16T10:50:16.265Z,9.00
2019-04-16T10:52:55.416Z,7.20
2019-04-16T10:55:24.986Z,9.20
2019-04-16T10:58:11.715Z,8.60
2019-04-16T11:00:48.069Z,8.70
2019-04-16T11:03:18.419Z,8.30
2019-04-16T11:05:51.190Z,8.40
2019-04-16T11:08:19.860Z,8.20
2019-04-16T11:10:48.420Z,8.60
2019-04-16T11:13:24.422Z,8.30
2019-04-16T11:15:53.216Z,8.10
2019-04-16T11:18:21.794Z,8.70
2019-04-16T11:20:50.373Z,7.80
2019-04-16T11:23:19.048Z,7.80
2019-04-16T11:25:47.611Z,7.40
2019-04-16T11:28:17.150Z,6.50
2019-04-16T11:30:50.143Z,5.90
2019-04-16T11:33:18.928Z,5.40
2019-04-16T11:35:50.260Z,6.40
2019-04-16T11:38:17.912Z,5.80
2019-04-16T11:40:46.522Z,5.00
2019-04-16T11:43:15.124Z,4.80
2019-04-16T11:45:43.809Z,4.70
2019-04-16T11:48:12.434Z,4.70
2019-04-16T11:50:40.976Z,4.40
2019-04-16T11:53:09.849Z,4.10
2019-04-16T11:55:38.717Z,3.90
2019-04-16T11:58:09.055Z,3.90
2019-04-16T12:00:45.102Z,3.80
2019-04-16T12:03:17.869Z,3.00
2019-04-16T12:05:56.917Z,2.80
2019-04-16T12:08:29.840Z,2.10
2019-04-16T12:11:11.543Z,2.40
2019-04-16T12:13:41.784Z,2.00
2019-04-16T12:16:14.696Z,1.80
2019-04-16T12:18:47.714Z,2.00
2019-04-16T12:21:18.084Z,1.70
2019-04-16T12:23:57.086Z,1.70
2019-04-16T12:26:32.852Z,1.30
2019-04-16T12:29:14.859Z,1.80
2019-04-16T12:32:05.379Z,1.00
2019-04-16T12:34:41.829Z,1.00
2019-04-16T12:37:20.837Z,1.00
2019-04-16T12:39:53.920Z,1.00
2019-04-16T12:42:24.138Z,1.00
2019-04-16T12:44:57.023Z,1.00
2019-04-16T12:47:27.335Z,1.00
2019-04-16T12:50:00.250Z,1.00
2019-04-16T12:52:39.925Z,1.00
2019-04-16T12:55:23.791Z,1.00
2019-04-16T12:57:54.153Z,1.00
2019-04-16T13:00:28.714Z,1.00
2019-04-16T13:02:57.628Z,1.00
2019-04-16T13:05:37.241Z,1.00
2019-04-16T13:08:16.832Z,1.00
2019-04-16T13:10:53.312Z,1.00
2019-04-16T13:13:38.534Z,1.00
2019-04-16T13:16:24.970Z,1.00
2019-04-16T13:19:07.263Z,1.00
2019-04-16T13:21:43.842Z,1.00
2019-04-16T13:24:16.553Z,1.00
2019-04-16T13:26:46.693Z,1.00
2019-04-16T13:29:17.302Z,1.00
2019-04-16T13:31:46.050Z,1.00
2019-04-16T13:34:18.377Z,1.00
2019-04-16T13:36:45.094Z,1.00
2019-04-16T13:39:15.320Z,1.00
2019-04-16T13:41:43.868Z,1.00
2019-04-16T13:44:17.076Z,1.00
2019-04-16T13:46:44.914Z,1.00
2019-04-16T13:49:31.345Z,1.00
2019-04-16T13:51:57.953Z,1.00
2019-04-16T13:54:34.034Z,1.00
2019-04-16T13:57:01.134Z,1.00
2019-04-16T13:59:31.884Z,1.00
2019-04-16T14:02:11.517Z,1.00
2019-04-16T14:04:40.707Z,1.00
2019-04-16T14:07:09.875Z,1.00
2019-04-16T14:09:39.048Z,1.00
2019-04-16T14:12:08.127Z,1.00
2019-04-16T14:14:37.202Z,1.00
2019-04-16T14:17:10.033Z,1.00
2019-04-16T14:19:37.991Z,1.00
2019-04-16T14:22:07.823Z,1.00
2019-04-16T14:24:37.530Z,1.00
2019-04-16T14:27:06.675Z,1.00
2019-04-16T14:29:38.401Z,1.00
2019-04-16T14:32:06.649Z,1.00
2019-04-16T14:34:37.441Z,1.00
2019-04-16T14:37:06.547Z,1.00
2019-04-16T14:39:37.422Z,1.00
2019-04-16T14:42:06.677Z,1.00
2019-04-16T14:47:25.655Z,1.00
2019-04-16T14:49:54.829Z,1.00
2019-04-16T14:52:24.154Z,1.00
2019-04-16T14:54:54.891Z,1.00
2019-04-16T14:57:24.077Z,1.00
2019-04-16T14:59:54.866Z,1.00
2019-04-16T15:02:29.689Z,1.00
2019-04-16T15:05:03.669Z,1.00
2019-04-16T15:07:43.860Z,1.00
2019-04-16T15:10:21.800Z,1.00
2019-04-16T15:12:54.152Z,1.00
2019-04-16T15:15:36.006Z,1.00
2019-04-16T15:18:15.743Z,1.00
2019-04-16T15:20:49.454Z,1.00
2019-04-16T15:23:23.394Z,1.00
2019-04-16T15:26:00.163Z,1.00
2019-04-16T15:28:33.827Z,1.00
2019-04-16T15:31:10.082Z,1.00
2019-04-16T15:33:46.352Z,1.00
2019-04-16T15:36:19.486Z,1.00
2019-04-16T15:39:02.944Z,1.00
2019-04-16T15:41:33.436Z,1.00
2019-04-16T15:44:15.744Z,1.00
2019-04-16T15:46:51.818Z,1.00
2019-04-16T15:49:28.543Z,1.00
2019-04-16T15:52:09.886Z,1.00
2019-04-16T15:54:55.588Z,1.00
2019-04-16T15:57:28.454Z,1.00
2019-04-16T16:00:10.509Z,1.00
2019-04-16T16:02:57.142Z,1.00
2019-04-16T16:05:27.436Z,1.00
2019-04-16T16:08:01.437Z,1.00
2019-04-16T16:10:38.540Z,1.00
2019-04-16T16:13:07.143Z,1.00
2019-04-16T16:15:40.218Z,1.00
2019-04-16T16:18:05.927Z,1.00
2019-04-16T16:20:34.530Z,1.00
2019-04-16T16:23:03.093Z,1.00
2019-04-16T16:25:31.752Z,1.00
2019-04-16T16:28:00.912Z,1.00
2019-04-16T16:30:30.091Z,1.00
2019-04-16T16:32:59.245Z,1.00
2019-04-16T16:35:28.480Z,1.00
2019-04-16T16:37:57.644Z,1.00
2019-04-16T16:40:26.822Z,1.00
2019-04-16T16:42:55.310Z,1.00
2019-04-16T16:45:25.530Z,1.00
2019-04-16T16:47:54.344Z,1.00
2019-04-16T16:50:22.966Z,1.00
2019-04-16T16:53:01.935Z,1.00
2019-04-16T16:55:41.295Z,1.00
2019-04-16T16:58:14.613Z,1.00
2019-04-16T17:00:59.164Z,1.00
2019-04-16T17:03:28.492Z,1.00
2019-04-16T17:05:58.682Z,1.00
2019-04-16T17:08:30.247Z,1.00
2019-04-16T17:10:57.622Z,1.00
2019-04-16T17:13:26.117Z,1.00
2019-04-16T17:15:54.926Z,1.00
2019-04-16T17:23:19.847Z,1.00
2019-04-16T17:48:29.600Z,2.60
2019-04-16T17:50:59.829Z,3.10
2019-04-16T18:01:29.653Z,4.50
2019-04-16T18:22:21.214Z,7.00
2019-04-16T18:25:07.536Z,7.20
2019-04-16T18:27:43.424Z,7.60
2019-04-16T18:30:31.100Z,7.70
2019-04-16T18:40:43.410Z,8.40
2019-04-16T18:43:30.110Z,8.60
2019-04-16T19:01:12.216Z,9.60
2019-04-16T19:03:40.942Z,10.00
2019-04-16T19:06:09.540Z,9.40
2019-04-16T19:08:42.085Z,10.30
2019-04-16T19:11:08.534Z,10.50
2019-04-16T19:16:05.428Z,10.60
2019-04-16T19:18:33.949Z,9.40
2019-04-16T19:23:30.786Z,10.80
2019-04-16T19:25:59.413Z,10.10
2019-04-16T19:28:27.963Z,10.50
2019-04-16T19:35:52.879Z,10.40
2019-04-16T19:40:50.826Z,10.50
2019-04-16T19:43:19.959Z,10.20
2019-04-16T19:45:49.351Z,10.40
2019-04-16T19:53:15.923Z,10.00
2019-04-16T19:55:45.801Z,10.00
2019-04-16T20:00:42.947Z,10.00
2019-04-16T20:05:39.732Z,9.70
2019-04-16T20:08:08.306Z,9.70
2019-04-16T20:10:38.549Z,9.80
2019-04-16T20:15:35.357Z,9.90
2019-04-16T20:18:06.542Z,9.80
2019-04-16T20:20:34.306Z,9.70
2019-04-16T20:35:23.925Z,10.10
2019-04-16T20:37:54.012Z,10.40
2019-04-16T20:42:50.960Z,10.60
2019-04-16T20:47:47.819Z,10.70
2019-04-16T20:52:46.217Z,10.60
2019-04-16T20:55:16.058Z,11.00
2019-04-16T20:57:45.059Z,11.10
2019-04-16T21:02:43.494Z,11.30
2019-04-16T21:05:21.924Z,11.40
2019-04-16T21:10:12.266Z,11.50
2019-04-16T21:12:45.007Z,11.70
2019-04-16T21:15:11.046Z,11.40
2019-04-16T21:20:08.356Z,11.70
2019-04-16T21:25:06.004Z,11.90
2019-04-16T21:32:36.532Z,12.10
2019-04-16T21:35:16.966Z,12.10
2019-04-16T21:50:28.135Z,12.70
2019-04-16T22:02:52.262Z,12.90
2019-04-16T22:05:21.171Z,13.10
2019-04-16T22:07:49.984Z,13.30
2019-04-16T22:10:18.748Z,13.50
2019-04-16T22:22:43.639Z,13.90
2019-04-16T22:28:01.407Z,14.20
2019-04-16T22:30:30.181Z,13.40
2019-04-16T22:32:59.052Z,14.20
2019-04-16T22:35:31.616Z,14.00
2019-04-16T22:37:58.427Z,14.20
2019-04-16T22:40:34.992Z,14.90
2019-04-16T22:43:21.723Z,15.30
2019-04-16T22:45:54.942Z,15.00
2019-04-16T22:48:23.817Z,14.80
2019-04-16T22:50:52.637Z,14.50
2019-04-16T22:53:21.511Z,15.10
2019-04-16T22:55:50.420Z,15.10
2019-04-16T22:58:23.430Z,15.20
2019-04-16T23:00:54.443Z,15.10
2019-04-16T23:03:23.279Z,15.30
2019-04-16T23:05:52.075Z,15.50
2019-04-16T23:08:20.861Z,16.20
2019-04-16T23:10:51.947Z,16.20
2019-04-16T23:13:20.438Z,16.00
2019-04-16T23:15:49.311Z,16.00
2019-04-16T23:18:18.336Z,15.90
2019-04-16T23:20:47.283Z,15.70
2019-04-16T23:23:19.030Z,15.80
2019-04-16T23:25:46.737Z,16.10
2019-04-16T23:28:15.582Z,16.50
2019-04-16T23:30:44.458Z,15.60
2019-04-16T23:33:13.294Z,16.20
2019-04-16T23:35:44.450Z,16.20
2019-04-16T23:38:12.602Z,16.10
2019-04-16T23:40:43.949Z,16.10
2019-04-16T23:43:28.118Z,16.10
2019-04-16T23:46:14.452Z,15.80
2019-04-16T23:48:53.614Z,15.50
2019-04-16T23:51:40.080Z,15.60
2019-04-16T23:54:22.309Z,15.70
2019-04-16T23:57:01.597Z,15.10
2019-04-16T23:59:35.951Z,15.00
